createdAt,value
2023-01-09T00:00:31.480Z,6.44
2023-01-09T00:02:58.304Z,6.40
2023-01-09T00:05:24.981Z,6.43
2023-01-09T00:07:51.496Z,6.36
2023-01-09T00:10:17.974Z,6.31
2023-01-09T00:12:50.604Z,6.29
2023-01-09T00:15:17.401Z,6.33
2023-01-09T00:17:45.037Z,6.35
2023-01-09T00:20:11.903Z,6.37
2023-01-09T00:22:38.394Z,6.33
2023-01-09T00:25:05.962Z,6.31
2023-01-09T00:27:34.076Z,6.30
2023-01-09T00:30:00.851Z,6.33
2023-01-09T00:32:28.554Z,6.22
2023-01-09T00:34:55.419Z,6.37
2023-01-09T00:37:22.300Z,6.38
2023-01-09T00:39:48.770Z,6.35
2023-01-09T00:42:20.783Z,6.29
2023-01-09T00:44:52.454Z,6.29
2023-01-09T00:47:24.839Z,6.33
2023-01-09T00:49:53.407Z,6.43
2023-01-09T00:52:22.226Z,6.39
2023-01-09T00:54:49.263Z,6.42
2023-01-09T00:57:16.007Z,6.45
2023-01-09T00:59:43.026Z,6.41
2023-01-09T01:02:10.420Z,6.50
2023-01-09T01:04:57.911Z,6.53
2023-01-09T01:07:39.192Z,6.50
2023-01-09T01:10:08.025Z,6.55
2023-01-09T01:12:34.464Z,6.57
2023-01-09T01:15:01.303Z,6.61
2023-01-09T01:17:27.915Z,6.62
2023-01-09T01:19:57.025Z,6.55
2023-01-09T01:22:23.466Z,6.54
2023-01-09T01:24:50.002Z,6.57
2023-01-09T01:27:16.466Z,6.68
2023-01-09T01:29:42.927Z,6.66
2023-01-09T01:32:09.523Z,6.79
2023-01-09T01:34:35.977Z,6.76
2023-01-09T01:37:02.474Z,6.75
2023-01-09T01:39:28.977Z,6.72
2023-01-09T01:41:57.507Z,6.72
2023-01-09T01:44:58.332Z,6.75
2023-01-09T01:47:40.628Z,6.75
2023-01-09T01:50:15.522Z,6.74
2023-01-09T01:52:44.881Z,6.79
2023-01-09T01:55:11.851Z,6.79
2023-01-09T01:57:46.151Z,6.82
2023-01-09T02:00:16.795Z,6.81
2023-01-09T02:02:45.923Z,6.74
2023-01-09T02:05:12.781Z,6.72
2023-01-09T02:07:39.255Z,6.68
2023-01-09T02:10:06.104Z,6.73
2023-01-09T02:12:32.534Z,6.65
2023-01-09T02:15:06.998Z,6.62
2023-01-09T02:18:00.780Z,6.65
2023-01-09T02:20:41.212Z,6.60
2023-01-09T02:23:44.692Z,6.62
2023-01-09T02:26:23.486Z,6.63
2023-01-09T02:29:27.484Z,6.66
2023-01-09T02:32:04.969Z,6.67
2023-01-09T02:34:34.223Z,6.76
2023-01-09T02:37:12.691Z,6.80
2023-01-09T02:40:07.163Z,6.88
2023-01-09T02:42:36.311Z,6.96
2023-01-09T02:45:02.850Z,6.99
2023-01-09T02:47:32.317Z,7.01
2023-01-09T02:50:06.235Z,7.01
2023-01-09T02:52:57.561Z,7.02
2023-01-09T02:55:45.485Z,7.05
2023-01-09T02:58:20.824Z,7.05
2023-01-09T03:01:14.915Z,7.14
2023-01-09T03:04:16.187Z,7.09
2023-01-09T03:06:51.860Z,7.09
2023-01-09T03:09:23.068Z,7.09
2023-01-09T03:12:02.674Z,7.15
2023-01-09T03:14:31.371Z,7.13
2023-01-09T03:17:02.582Z,7.18
2023-01-09T03:19:32.341Z,7.19
2023-01-09T03:22:01.483Z,7.15
2023-01-09T03:24:30.290Z,7.12
2023-01-09T03:26:56.817Z,7.11
2023-01-09T03:29:23.291Z,7.13
2023-01-09T03:31:49.863Z,7.12
2023-01-09T03:34:16.377Z,7.14
2023-01-09T03:36:51.533Z,7.14
2023-01-09T03:39:18.079Z,7.10
2023-01-09T03:41:44.544Z,7.01
2023-01-09T03:44:11.025Z,7.03
2023-01-09T03:46:37.548Z,7.01
2023-01-09T03:49:04.058Z,7.00
2023-01-09T03:51:30.586Z,7.10
2023-01-09T03:53:57.191Z,7.05
2023-01-09T03:56:23.648Z,7.05
2023-01-09T03:58:50.272Z,7.05
2023-01-09T04:01:16.789Z,7.08
2023-01-09T04:03:43.371Z,7.09
2023-01-09T04:06:09.878Z,7.05
2023-01-09T04:08:36.498Z,6.97
2023-01-09T04:11:05.292Z,6.92
2023-01-09T04:13:34.152Z,6.95
2023-01-09T04:16:02.923Z,6.94
2023-01-09T04:18:29.393Z,6.95
2023-01-09T04:20:56.188Z,6.96
2023-01-09T04:23:22.771Z,7.01
2023-01-09T04:25:49.271Z,7.00
2023-01-09T04:28:15.734Z,6.99
2023-01-09T04:30:42.273Z,6.94
2023-01-09T04:33:08.709Z,7.04
2023-01-09T04:35:35.179Z,7.05
2023-01-09T04:38:04.238Z,7.12
2023-01-09T04:40:30.726Z,7.17
2023-01-09T04:42:57.189Z,7.22
2023-01-09T04:45:23.714Z,7.15
2023-01-09T04:47:52.592Z,7.18
2023-01-09T04:50:19.159Z,7.14
2023-01-09T04:52:45.597Z,7.16
2023-01-09T04:55:12.112Z,7.19
2023-01-09T04:57:41.195Z,7.13
2023-01-09T05:00:12.353Z,7.22
2023-01-09T05:02:39.527Z,7.16
2023-01-09T05:05:10.413Z,7.21
2023-01-09T05:07:37.763Z,7.36
2023-01-09T05:10:05.664Z,7.32
2023-01-09T05:12:36.888Z,7.28
2023-01-09T05:15:04.856Z,7.29
2023-01-09T05:17:31.288Z,7.36
2023-01-09T05:19:57.770Z,7.32
2023-01-09T05:22:24.251Z,7.29
2023-01-09T05:24:52.996Z,7.45
2023-01-09T05:27:19.464Z,7.38
2023-01-09T05:29:45.923Z,7.46
2023-01-09T05:32:12.429Z,7.37
2023-01-09T05:34:38.878Z,7.47
2023-01-09T05:37:05.348Z,7.58
2023-01-09T05:39:32.011Z,7.55
2023-01-09T05:41:58.489Z,7.59
2023-01-09T05:44:24.930Z,7.64
2023-01-09T05:46:51.353Z,7.75
2023-01-09T05:49:17.815Z,7.79
2023-01-09T05:51:46.237Z,7.65
2023-01-09T05:54:12.700Z,7.67
2023-01-09T05:56:39.137Z,7.68
2023-01-09T05:59:05.727Z,7.73
2023-01-09T06:01:32.292Z,7.73
2023-01-09T06:03:58.820Z,7.79
2023-01-09T06:06:36.562Z,7.67
2023-01-09T06:09:03.660Z,7.67
2023-01-09T06:11:30.131Z,7.70
2023-01-09T06:13:56.609Z,7.65
2023-01-09T06:16:23.153Z,7.78
2023-01-09T06:18:50.486Z,7.78
2023-01-09T06:21:16.981Z,7.79
2023-01-09T06:23:43.462Z,7.67
2023-01-09T06:26:09.953Z,7.53
2023-01-09T06:28:36.500Z,7.51
2023-01-09T06:31:03.217Z,7.48
2023-01-09T06:33:30.101Z,7.57
2023-01-09T06:35:56.579Z,7.57
2023-01-09T06:38:23.271Z,7.54
2023-01-09T06:40:50.846Z,7.58
2023-01-09T06:43:17.282Z,7.59
2023-01-09T06:45:44.162Z,7.54
2023-01-09T06:48:11.116Z,7.53
2023-01-09T06:50:37.678Z,7.59
2023-01-09T06:53:04.196Z,7.57
2023-01-09T06:55:30.681Z,7.59
2023-01-09T06:57:57.153Z,7.59
2023-01-09T07:00:23.691Z,7.53
2023-01-09T07:02:50.144Z,7.50
2023-01-09T07:05:16.841Z,7.44
2023-01-09T07:07:43.328Z,7.36
2023-01-09T07:10:11.084Z,7.37
2023-01-09T07:12:37.547Z,7.18
2023-01-09T07:15:04.471Z,7.23
2023-01-09T07:17:32.696Z,7.13
2023-01-09T07:20:00.001Z,7.15
2023-01-09T07:22:26.657Z,7.00
2023-01-09T07:24:53.149Z,7.11
2023-01-09T07:27:19.624Z,7.11
2023-01-09T07:29:46.110Z,7.11
2023-01-09T07:32:12.547Z,7.12
2023-01-09T07:34:40.424Z,7.07
2023-01-09T07:37:06.936Z,7.01
2023-01-09T07:39:33.390Z,7.14
2023-01-09T07:41:59.829Z,7.06
2023-01-09T07:44:26.325Z,7.07
2023-01-09T07:46:53.019Z,7.03
2023-01-09T07:49:21.868Z,7.08
2023-01-09T07:51:48.376Z,7.06
2023-01-09T07:54:14.980Z,7.09
2023-01-09T07:56:41.445Z,7.02
2023-01-09T07:59:08.146Z,6.95
2023-01-09T08:01:34.954Z,6.95
2023-01-09T08:04:01.443Z,6.98
2023-01-09T08:06:27.992Z,6.94
2023-01-09T08:08:54.436Z,6.91
2023-01-09T08:11:20.936Z,6.77
2023-01-09T08:13:47.428Z,6.77
2023-01-09T08:16:14.005Z,6.84
2023-01-09T08:18:40.511Z,6.85
2023-01-09T08:21:09.607Z,6.84
2023-01-09T08:23:36.092Z,6.85
2023-01-09T08:26:03.227Z,6.86
2023-01-09T08:28:29.738Z,6.91
2023-01-09T08:30:56.261Z,6.96
2023-01-09T08:33:23.050Z,7.03
2023-01-09T08:35:53.246Z,7.00
2023-01-09T08:38:19.838Z,6.98
2023-01-09T08:40:47.515Z,7.05
2023-01-09T08:43:32.696Z,7.00
2023-01-09T08:46:17.776Z,7.08
2023-01-09T08:48:46.564Z,7.06
2023-01-09T08:51:13.201Z,7.12
2023-01-09T08:53:39.706Z,7.09
2023-01-09T08:56:06.474Z,7.08
2023-01-09T08:58:33.027Z,7.08
2023-01-09T09:00:59.557Z,7.11
2023-01-09T09:03:26.024Z,7.08
2023-01-09T09:05:54.974Z,7.11
2023-01-09T09:08:21.711Z,7.10
2023-01-09T09:10:48.153Z,7.09
2023-01-09T09:13:14.656Z,7.11
2023-01-09T09:15:41.203Z,7.15
2023-01-09T09:18:07.759Z,7.15
2023-01-09T09:20:41.100Z,7.22
2023-01-09T09:23:08.417Z,7.09
2023-01-09T09:25:35.488Z,7.08
2023-01-09T09:28:02.164Z,7.13
2023-01-09T09:30:28.832Z,7.12
2023-01-09T09:33:00.207Z,7.09
2023-01-09T09:35:28.490Z,7.24
2023-01-09T09:37:56.878Z,7.31
2023-01-09T09:40:39.779Z,7.43
2023-01-09T09:43:28.137Z,7.35
2023-01-09T09:46:09.641Z,7.32
2023-01-09T09:48:54.726Z,7.37
2023-01-09T09:51:34.546Z,7.29
2023-01-09T09:54:17.500Z,7.48
2023-01-09T09:56:51.461Z,7.58
2023-01-09T09:59:21.310Z,7.68
2023-01-09T10:02:02.465Z,7.67
2023-01-09T10:04:33.502Z,7.46
2023-01-09T10:07:14.122Z,7.53
2023-01-09T10:09:54.358Z,7.55
2023-01-09T10:12:43.746Z,7.50
2023-01-09T10:15:22.841Z,7.51
2023-01-09T10:18:18.018Z,7.50
2023-01-09T10:20:53.067Z,7.52
2023-01-09T10:23:34.933Z,7.34
2023-01-09T10:26:37.630Z,7.32
2023-01-09T10:29:07.090Z,7.35
2023-01-09T10:32:02.821Z,7.34
2023-01-09T10:34:41.482Z,7.29
2023-01-09T10:37:16.212Z,7.26
2023-01-09T10:39:57.865Z,7.27
2023-01-09T10:42:47.405Z,7.33
2023-01-09T10:45:59.278Z,7.37
2023-01-09T10:48:31.843Z,7.38
2023-01-09T10:50:59.473Z,7.41
2023-01-09T10:53:35.309Z,7.40
2023-01-09T10:56:14.740Z,7.45
2023-01-09T10:58:41.200Z,7.54
2023-01-09T11:01:09.547Z,7.53
2023-01-09T11:03:41.821Z,7.47
2023-01-09T11:06:43.382Z,7.36
2023-01-09T11:09:10.142Z,7.24
2023-01-09T11:11:40.825Z,7.19
2023-01-09T11:14:17.082Z,7.33
2023-01-09T11:17:03.980Z,7.56
2023-01-09T11:19:33.341Z,7.62
2023-01-09T11:22:17.544Z,7.48
2023-01-09T11:24:44.886Z,7.69
2023-01-09T11:27:14.479Z,7.64
2023-01-09T11:29:41.697Z,7.53
2023-01-09T11:32:22.465Z,7.57
2023-01-09T11:34:53.105Z,7.55
2023-01-09T11:37:27.869Z,7.53
2023-01-09T11:39:55.874Z,7.55
2023-01-09T11:42:44.816Z,7.66
2023-01-09T11:45:30.711Z,7.76
2023-01-09T11:47:58.612Z,7.86
2023-01-09T11:50:30.825Z,7.75
2023-01-09T11:53:18.376Z,7.98
2023-01-09T11:55:47.166Z,7.87
2023-01-09T11:58:16.714Z,7.84
2023-01-09T12:01:14.360Z,7.59
2023-01-09T12:03:46.919Z,7.75
2023-01-09T12:06:19.721Z,7.76
2023-01-09T12:08:58.193Z,7.76
2023-01-09T12:11:32.141Z,7.63
2023-01-09T12:14:01.253Z,7.65
2023-01-09T12:16:39.169Z,7.67
2023-01-09T12:19:08.705Z,7.69
2023-01-09T12:21:41.904Z,7.69
2023-01-09T12:24:53.373Z,7.74
2023-01-09T12:27:56.992Z,7.79
2023-01-09T12:30:33.958Z,7.77
2023-01-09T12:33:22.369Z,7.59
2023-01-09T12:36:06.842Z,7.50
2023-01-09T12:38:54.123Z,7.48
2023-01-09T12:41:35.430Z,7.50
2023-01-09T12:44:35.638Z,7.57
2023-01-09T12:47:34.406Z,7.57
2023-01-09T12:50:00.905Z,7.58
2023-01-09T12:52:39.371Z,7.53
2023-01-09T12:55:18.715Z,7.45
2023-01-09T12:57:55.716Z,7.53
2023-01-09T13:00:27.344Z,7.49
2023-01-09T13:03:13.300Z,7.47
2023-01-09T13:05:47.157Z,7.41
2023-01-09T13:08:32.585Z,7.46
2023-01-09T13:11:22.420Z,7.32
2023-01-09T13:13:55.847Z,7.46
2023-01-09T13:16:47.520Z,7.34
2023-01-09T13:19:24.875Z,7.43
2023-01-09T13:21:52.910Z,7.46
2023-01-09T13:24:51.566Z,7.48
2023-01-09T13:27:22.877Z,7.57
2023-01-09T13:29:55.884Z,7.62
2023-01-09T13:32:26.279Z,7.46
2023-01-09T13:34:55.143Z,7.55
2023-01-09T13:37:27.815Z,7.57
2023-01-09T13:39:57.744Z,7.52
2023-01-09T13:42:51.364Z,7.56
2023-01-09T13:45:17.769Z,7.68
2023-01-09T13:47:45.022Z,7.65
2023-01-09T13:50:11.424Z,7.55
2023-01-09T13:52:43.225Z,7.71
2023-01-09T13:55:15.034Z,7.61
2023-01-09T13:58:05.794Z,7.67
2023-01-09T14:00:35.160Z,7.64
2023-01-09T14:03:22.101Z,7.67
2023-01-09T14:05:48.508Z,7.61
2023-01-09T14:08:23.921Z,7.57
2023-01-09T14:10:57.887Z,7.47
2023-01-09T14:13:28.542Z,7.41
2023-01-09T14:16:23.744Z,7.21
2023-01-09T14:19:16.221Z,7.27
2023-01-09T14:21:49.459Z,7.19
2023-01-09T14:24:28.882Z,7.25
2023-01-09T14:27:01.011Z,7.22
2023-01-09T14:29:43.671Z,7.18
2023-01-09T14:32:22.353Z,7.08
2023-01-09T14:35:04.457Z,7.14
2023-01-09T14:37:35.398Z,7.16
2023-01-09T14:40:06.986Z,7.15
2023-01-09T14:42:35.170Z,7.10
2023-01-09T14:45:07.457Z,7.17
2023-01-09T14:47:41.838Z,7.19
2023-01-09T14:50:45.112Z,7.21
2023-01-09T14:53:34.460Z,7.20
2023-01-09T14:56:06.018Z,7.13
2023-01-09T14:58:40.326Z,7.14
2023-01-09T15:01:18.855Z,7.05
2023-01-09T15:03:51.588Z,7.08
2023-01-09T15:06:20.868Z,7.07
2023-01-09T15:09:13.319Z,6.91
2023-01-09T15:11:40.307Z,6.91
2023-01-09T15:14:09.046Z,6.86
2023-01-09T15:16:35.641Z,6.76
2023-01-09T15:19:07.556Z,6.75
2023-01-09T15:21:36.571Z,6.64
2023-01-09T15:24:13.164Z,6.57
2023-01-09T15:26:40.232Z,6.50
2023-01-09T15:29:17.824Z,6.43
2023-01-09T15:31:47.361Z,6.35
2023-01-09T15:34:35.295Z,6.31
2023-01-09T15:37:03.113Z,6.39
2023-01-09T15:39:36.026Z,6.27
2023-01-09T15:42:22.040Z,6.32
2023-01-09T15:44:53.714Z,6.17
2023-01-09T15:47:31.482Z,6.13
2023-01-09T15:50:06.295Z,6.11
2023-01-09T15:52:33.135Z,6.10
2023-01-09T15:54:59.613Z,5.99
2023-01-09T15:57:34.645Z,5.96
2023-01-09T16:00:31.223Z,5.93
2023-01-09T16:03:10.128Z,5.87
2023-01-09T16:05:43.855Z,5.94
2023-01-09T16:08:26.535Z,6.08
2023-01-09T16:10:58.368Z,6.14
2023-01-09T16:13:30.044Z,6.03
2023-01-09T16:15:58.784Z,6.08
2023-01-09T16:18:31.068Z,6.14
2023-01-09T16:21:21.796Z,5.95
2023-01-09T16:24:03.090Z,5.98
2023-01-09T16:26:31.212Z,5.96
2023-01-09T16:29:46.725Z,5.83
2023-01-09T16:32:25.728Z,5.80
2023-01-09T16:34:54.352Z,5.81
2023-01-09T16:37:22.891Z,5.87
2023-01-09T16:40:22.480Z,5.84
2023-01-09T16:43:00.813Z,5.81
2023-01-09T16:45:30.220Z,5.66
2023-01-09T16:47:58.070Z,5.65
2023-01-09T16:50:25.710Z,5.71
2023-01-09T16:52:55.439Z,5.73
2023-01-09T16:55:21.913Z,5.60
2023-01-09T16:57:48.497Z,5.41
2023-01-09T17:00:18.070Z,5.46
2023-01-09T17:02:44.846Z,5.60
2023-01-09T17:05:11.531Z,5.52
2023-01-09T17:07:38.275Z,5.41
2023-01-09T17:10:17.799Z,5.40
2023-01-09T17:12:44.280Z,5.42
2023-01-09T17:15:10.812Z,5.42
2023-01-09T17:17:37.323Z,5.46
2023-01-09T17:20:09.589Z,5.37
2023-01-09T17:22:38.377Z,5.25
2023-01-09T17:25:23.906Z,5.39
2023-01-09T17:28:09.187Z,5.37
2023-01-09T17:30:35.635Z,5.32
2023-01-09T17:33:02.088Z,5.41
2023-01-09T17:35:28.555Z,5.47
2023-01-09T17:37:58.306Z,5.55
2023-01-09T17:40:24.911Z,5.52
2023-01-09T17:42:51.353Z,5.53
2023-01-09T17:45:17.939Z,5.59
2023-01-09T17:47:44.423Z,5.69
2023-01-09T17:50:21.073Z,5.68
2023-01-09T17:52:48.903Z,5.64
2023-01-09T17:55:15.410Z,5.68
2023-01-09T17:57:43.437Z,5.66
2023-01-09T18:00:30.216Z,5.70
2023-01-09T18:02:57.510Z,5.62
2023-01-09T18:05:27.637Z,5.71
2023-01-09T18:07:54.162Z,5.66
2023-01-09T18:10:24.533Z,5.66
2023-01-09T18:12:52.534Z,5.59
2023-01-09T18:15:19.037Z,5.57
2023-01-09T18:17:45.685Z,5.55
2023-01-09T18:20:15.057Z,5.48
2023-01-09T18:22:43.598Z,5.30
2023-01-09T18:25:10.191Z,5.26
2023-01-09T18:27:37.416Z,5.22
2023-01-09T18:30:05.697Z,5.17
2023-01-09T18:32:32.598Z,5.17
2023-01-09T18:34:59.101Z,5.14
2023-01-09T18:37:26.795Z,5.11
2023-01-09T18:39:53.249Z,4.90
2023-01-09T18:42:19.718Z,4.99
2023-01-09T18:44:46.227Z,4.92
2023-01-09T18:47:13.030Z,4.88
2023-01-09T18:49:42.182Z,4.93
2023-01-09T18:52:10.767Z,4.82
2023-01-09T18:54:38.459Z,4.91
2023-01-09T18:57:05.151Z,4.91
2023-01-09T18:59:31.602Z,4.90
2023-01-09T19:01:58.417Z,5.03
2023-01-09T19:04:26.972Z,4.96
2023-01-09T19:06:56.066Z,5.00
2023-01-09T19:09:23.650Z,4.98
2023-01-09T19:11:50.122Z,4.92
2023-01-09T19:14:16.647Z,4.91
2023-01-09T19:16:43.187Z,4.94
2023-01-09T19:19:10.231Z,4.84
2023-01-09T19:21:36.808Z,4.86
2023-01-09T19:24:03.487Z,4.81
2023-01-09T19:26:31.074Z,4.81
2023-01-09T19:28:57.968Z,4.71
2023-01-09T19:31:25.761Z,4.68
2023-01-09T19:33:52.910Z,4.62
2023-01-09T19:36:20.072Z,4.57
2023-01-09T19:38:46.779Z,4.54
2023-01-09T19:41:19.457Z,4.50
2023-01-09T19:43:47.648Z,4.53
2023-01-09T19:46:18.449Z,4.48
2023-01-09T19:48:45.343Z,4.39
2023-01-09T19:51:13.250Z,4.37
2023-01-09T19:53:40.215Z,4.22
2023-01-09T19:56:18.382Z,4.32
2023-01-09T19:58:56.066Z,4.32
2023-01-09T20:01:32.707Z,4.19
2023-01-09T20:04:04.070Z,4.28
2023-01-09T20:06:31.289Z,4.35
2023-01-09T20:08:59.873Z,4.30
2023-01-09T20:11:29.587Z,4.28
2023-01-09T20:13:56.683Z,4.28
2023-01-09T20:16:28.889Z,4.21
2023-01-09T20:19:00.960Z,4.14
2023-01-09T20:21:28.927Z,4.14
2023-01-09T20:23:59.023Z,4.21
2023-01-09T20:26:26.537Z,4.18
2023-01-09T20:28:53.477Z,4.37
2023-01-09T20:31:22.015Z,4.38
2023-01-09T20:33:49.447Z,4.35
2023-01-09T20:36:15.928Z,4.39
2023-01-09T20:38:45.317Z,4.28
2023-01-09T20:41:22.737Z,4.38
2023-01-09T20:43:59.658Z,4.36
2023-01-09T20:46:28.909Z,4.34
2023-01-09T20:48:56.890Z,4.39
2023-01-09T20:51:23.801Z,4.51
2023-01-09T20:53:58.293Z,4.47
2023-01-09T20:56:29.735Z,4.45
2023-01-09T20:58:58.021Z,4.46
2023-01-09T21:01:25.321Z,4.36
2023-01-09T21:03:53.709Z,4.35
2023-01-09T21:06:31.175Z,4.41
2023-01-09T21:08:57.921Z,4.41
2023-01-09T21:11:24.464Z,4.47
2023-01-09T21:13:51.787Z,4.43
2023-01-09T21:16:21.610Z,4.35
2023-01-09T21:18:48.627Z,4.45
2023-01-09T21:21:17.937Z,4.53
2023-01-09T21:23:58.410Z,4.53
2023-01-09T21:26:36.332Z,4.57
2023-01-09T21:29:08.283Z,4.60
2023-01-09T21:31:35.283Z,4.57
2023-01-09T21:34:07.367Z,4.67
2023-01-09T21:36:35.410Z,4.69
2023-01-09T21:39:02.414Z,4.77
2023-01-09T21:41:49.150Z,4.71
2023-01-09T21:44:33.931Z,4.89
2023-01-09T21:47:04.245Z,4.94
2023-01-09T21:49:36.143Z,4.88
2023-01-09T21:52:04.569Z,4.77
2023-01-09T21:54:31.467Z,4.82
2023-01-09T21:56:58.131Z,4.81
2023-01-09T21:59:27.374Z,4.83
2023-01-09T22:01:56.733Z,4.90
2023-01-09T22:04:26.436Z,4.91
2023-01-09T22:06:52.874Z,4.87
2023-01-09T22:09:19.471Z,4.83
2023-01-09T22:11:46.581Z,4.81
2023-01-09T22:14:15.742Z,4.88
2023-01-09T22:16:44.125Z,4.87
2023-01-09T22:19:19.519Z,4.99
2023-01-09T22:21:46.881Z,4.97
2023-01-09T22:24:15.055Z,4.96
2023-01-09T22:26:41.553Z,4.96
2023-01-09T22:29:08.012Z,5.03
2023-01-09T22:31:37.398Z,5.00
2023-01-09T22:34:03.815Z,5.03
2023-01-09T22:36:31.066Z,4.96
2023-01-09T22:38:59.074Z,5.11
2023-01-09T22:41:27.431Z,5.07
2023-01-09T22:43:53.882Z,5.08
2023-01-09T22:46:20.667Z,5.13
2023-01-09T22:48:47.207Z,5.00
2023-01-09T22:51:17.648Z,5.07
2023-01-09T22:53:44.905Z,5.09
2023-01-09T22:56:17.491Z,5.14
2023-01-09T22:58:44.672Z,5.17
2023-01-09T23:01:12.414Z,5.17
2023-01-09T23:03:39.890Z,5.23
2023-01-09T23:06:11.771Z,5.20
2023-01-09T23:08:42.088Z,5.25
2023-01-09T23:11:13.120Z,5.18
2023-01-09T23:13:40.614Z,5.17
2023-01-09T23:16:07.556Z,5.11
2023-01-09T23:18:35.754Z,5.12
2023-01-09T23:21:04.898Z,4.99
2023-01-09T23:23:32.654Z,4.94
2023-01-09T23:26:02.454Z,4.94
2023-01-09T23:28:30.601Z,4.99
2023-01-09T23:31:01.260Z,4.95
2023-01-09T23:33:27.871Z,5.09
2023-01-09T23:35:54.383Z,5.07
2023-01-09T23:38:21.000Z,5.13
2023-01-09T23:40:47.607Z,5.10
2023-01-09T23:43:16.761Z,5.09
2023-01-09T23:45:48.946Z,5.20
2023-01-09T23:48:16.919Z,5.16
2023-01-09T23:50:47.419Z,5.12
2023-01-09T23:53:14.152Z,5.15
2023-01-09T23:55:43.041Z,5.08
2023-01-09T23:58:11.652Z,5.06
